Time;durP1;ratioP1;P1;durP2;ratioP2;P2;SDS_P1;SDS_P2;PMS_P1;PMS_P2;Temp;Humidity;BMP_temperature;BMP_pressure;BME280_temperature;BME280_humidity;BME280_pressure;Samples;Min_cycle;Max_cycle;Signal;HPM_P1;HPM_P2
2022/05/16 00:00:01;;;;;;;4.20;1.67;;;;;;;;;;5094174;28;20569;-55
2022/05/16 00:02:27;;;;;;;1.90;1.60;;;;;;;;;;5093600;28;20195;-55
2022/05/16 00:04:53;;;;;;;1.67;1.57;;;;;;;;;;5093554;28;20245;-55
2022/05/16 00:07:19;;;;;;;1.90;1.53;;;;;;;;;;5093775;28;20750;-55
2022/05/16 00:09:45;;;;;;;2.87;1.77;;;;;;;;;;5093794;28;20218;-55
2022/05/16 00:12:15;;;;;;;2.20;1.63;;;;;;;;;;5093888;28;20195;-55
2022/05/16 00:14:42;;;;;;;2.33;1.50;;;;;;;;;;5093465;28;20209;-55
2022/05/16 00:17:08;;;;;;;3.87;1.80;;;;;;;;;;5093418;28;20318;-58
2022/05/16 00:19:35;;;;;;;2.07;1.47;;;;;;;;;;5093018;28;20195;-56
2022/05/16 00:22:01;;;;;;;2.23;1.70;;;;;;;;;;5093596;28;20205;-56
2022/05/16 00:24:28;;;;;;;2.43;1.80;;;;;;;;;;5093129;28;20298;-56
2022/05/16 00:26:55;;;;;;;3.07;1.70;;;;;;;;;;5093154;28;20202;-55
2022/05/16 00:29:22;;;;;;;5.73;1.93;;;;;;;;;;5092724;28;20218;-56
2022/05/16 00:31:48;;;;;;;2.93;1.90;;;;;;;;;;5092880;28;20207;-55
2022/05/16 00:34:14;;;;;;;2.80;1.67;;;;;;;;;;5093128;28;20213;-55
2022/05/16 00:36:43;;;;;;;2.10;1.67;;;;;;;;;;5093036;28;20212;-55
2022/05/16 00:39:09;;;;;;;3.23;1.70;;;;;;;;;;5092916;28;20195;-55
2022/05/16 00:41:35;;;;;;;3.60;1.97;;;;;;;;;;5092823;28;20232;-56
2022/05/16 00:44:01;;;;;;;3.00;1.67;;;;;;;;;;5093117;28;20225;-54
2022/05/16 00:46:29;;;;;;;3.93;1.70;;;;;;;;;;5092770;28;20558;-55
2022/05/16 00:48:56;;;;;;;2.63;1.60;;;;;;;;;;5092635;28;20226;-55
2022/05/16 00:51:23;;;;;;;2.63;1.80;;;;;;;;;;5092716;28;20199;-56
2022/05/16 00:53:49;;;;;;;2.33;1.90;;;;;;;;;;5092839;28;20241;-56
2022/05/16 00:56:16;;;;;;;4.63;2.10;;;;;;;;;;5092799;28;20203;-55
2022/05/16 00:58:42;;;;;;;4.77;2.00;;;;;;;;;;5092361;28;20646;-55
2022/05/16 01:04:47;;;;;;;2.50;1.60;;;;;;;;;;5092429;28;20275;-59
2022/05/16 01:06:42;;;;;;;3.57;1.97;;;;;;;;;;5092554;28;20565;-56
2022/05/16 01:09:08;;;;;;;4.17;1.80;;;;;;;;;;5092380;28;20254;-56
2022/05/16 01:11:36;;;;;;;3.43;2.27;;;;;;;;;;5092321;28;20213;-56
2022/05/16 01:14:02;;;;;;;2.47;1.60;;;;;;;;;;5092445;28;20206;-55
2022/05/16 01:16:28;;;;;;;3.17;1.80;;;;;;;;;;5092236;28;20226;-55
2022/05/16 01:18:54;;;;;;;2.60;1.63;;;;;;;;;;5092253;28;20286;-55
2022/05/16 01:21:27;;;;;;;2.93;1.80;;;;;;;;;;5092170;28;20239;-55
2022/05/16 01:23:58;;;;;;;3.17;1.70;;;;;;;;;;5092345;28;20316;-55
2022/05/16 01:26:26;;;;;;;1.80;1.50;;;;;;;;;;5092271;28;20215;-55
2022/05/16 01:28:52;;;;;;;2.10;1.50;;;;;;;;;;5092249;28;20268;-55
2022/05/16 01:31:18;;;;;;;2.43;1.70;;;;;;;;;;5092324;28;20201;-55
2022/05/16 01:33:44;;;;;;;3.73;1.70;;;;;;;;;;5092359;28;20205;-55
2022/05/16 01:36:11;;;;;;;2.00;1.80;;;;;;;;;;5090587;28;20277;-55
2022/05/16 01:38:37;;;;;;;1.97;1.57;;;;;;;;;;5092087;28;20195;-55
2022/05/16 01:41:05;;;;;;;2.77;1.80;;;;;;;;;;5092199;28;20199;-55
2022/05/16 01:43:32;;;;;;;2.23;1.50;;;;;;;;;;5091473;28;20202;-55
2022/05/16 01:45:59;;;;;;;4.43;1.60;;;;;;;;;;5092266;28;20542;-55
2022/05/16 01:48:29;;;;;;;3.53;2.00;;;;;;;;;;5091889;28;20225;-55
2022/05/16 01:50:58;;;;;;;3.17;2.00;;;;;;;;;;5091926;28;20274;-55
2022/05/16 01:53:24;;;;;;;2.93;2.00;;;;;;;;;;5092086;28;20194;-55
2022/05/16 01:55:50;;;;;;;3.23;2.00;;;;;;;;;;5092015;28;20612;-55
2022/05/16 01:58:17;;;;;;;3.77;1.90;;;;;;;;;;5091881;28;20248;-55
2022/05/16 02:00:44;;;;;;;2.27;1.77;;;;;;;;;;5091768;28;20206;-55
2022/05/16 02:03:10;;;;;;;5.93;2.03;;;;;;;;;;5091981;28;20207;-55
2022/05/16 02:05:36;;;;;;;3.77;1.67;;;;;;;;;;5091631;28;20669;-55
2022/05/16 02:08:02;;;;;;;4.00;1.93;;;;;;;;;;5091879;28;20202;-55
2022/05/16 02:10:28;;;;;;;4.40;1.90;;;;;;;;;;5091780;28;20527;-55
2022/05/16 02:12:57;;;;;;;2.90;2.00;;;;;;;;;;5091720;28;20618;-55
2022/05/16 02:15:25;;;;;;;3.27;1.77;;;;;;;;;;5091609;28;20862;-55
2022/05/16 02:17:51;;;;;;;4.23;1.90;;;;;;;;;;5091258;28;20278;-55
2022/05/16 02:20:17;;;;;;;2.67;1.77;;;;;;;;;;5091521;28;20218;-55
2022/05/16 02:25:28;;;;;;;2.37;1.77;;;;;;;;;;5091344;28;20261;-55
2022/05/16 02:27:54;;;;;;;3.27;1.93;;;;;;;;;;5091615;28;20668;-55
2022/05/16 02:30:21;;;;;;;3.20;1.87;;;;;;;;;;5091531;28;20245;-55
2022/05/16 02:32:48;;;;;;;3.83;2.00;;;;;;;;;;5091587;28;20285;-55
2022/05/16 02:35:15;;;;;;;4.10;2.03;;;;;;;;;;5092031;28;20213;-55
2022/05/16 02:37:41;;;;;;;2.10;1.87;;;;;;;;;;5091346;28;20340;-55
2022/05/16 02:40:08;;;;;;;4.87;1.90;;;;;;;;;;5091472;28;20194;-55
2022/05/16 02:42:35;;;;;;;4.57;1.73;;;;;;;;;;5091248;28;20205;-55
2022/05/16 02:45:01;;;;;;;3.37;1.90;;;;;;;;;;5091651;28;20202;-55
2022/05/16 02:47:27;;;;;;;2.80;1.97;;;;;;;;;;5092214;28;20217;-54
2022/05/16 02:49:54;;;;;;;2.37;1.70;;;;;;;;;;5091971;28;20231;-54
2022/05/16 02:52:20;;;;;;;2.73;1.80;;;;;;;;;;5091476;28;20202;-55
2022/05/16 02:54:46;;;;;;;4.37;1.80;;;;;;;;;;5094780;28;20191;-55
2022/05/16 02:57:12;;;;;;;3.70;1.97;;;;;;;;;;5095194;28;20645;-55
2022/05/16 02:59:39;;;;;;;2.93;1.93;;;;;;;;;;5095003;28;20199;-55
2022/05/16 03:02:06;;;;;;;1.90;1.70;;;;;;;;;;5094889;28;20229;-55
2022/05/16 03:04:32;;;;;;;2.33;1.60;;;;;;;;;;5095030;28;20195;-55
2022/05/16 03:07:00;;;;;;;5.20;2.07;;;;;;;;;;5095180;28;20201;-55
2022/05/16 03:09:27;;;;;;;2.40;2.20;;;;;;;;;;5094578;28;20262;-55
2022/05/16 03:11:53;;;;;;;2.57;1.80;;;;;;;;;;5094939;28;20190;-55
2022/05/16 03:14:19;;;;;;;1.97;1.60;;;;;;;;;;5094719;28;20195;-55
2022/05/16 03:16:45;;;;;;;3.27;1.90;;;;;;;;;;5094619;28;20260;-55
2022/05/16 03:19:12;;;;;;;3.00;1.80;;;;;;;;;;5094742;28;20191;-55
2022/05/16 03:21:38;;;;;;;2.77;1.73;;;;;;;;;;5094535;28;20278;-55
2022/05/16 03:24:05;;;;;;;3.73;1.90;;;;;;;;;;5094479;28;20194;-55
2022/05/16 03:26:31;;;;;;;3.70;2.00;;;;;;;;;;5094468;28;20271;-55
2022/05/16 03:28:57;;;;;;;4.73;2.07;;;;;;;;;;5094356;28;20595;-55
2022/05/16 03:31:23;;;;;;;2.20;1.70;;;;;;;;;;5094419;28;20199;-55
2022/05/16 03:33:50;;;;;;;3.07;1.90;;;;;;;;;;5094407;28;20202;-55
2022/05/16 03:36:16;;;;;;;2.57;1.77;;;;;;;;;;5094124;28;20191;-55
2022/05/16 03:41:28;;;;;;;4.17;2.10;;;;;;;;;;5094300;28;20194;-55
2022/05/16 03:43:54;;;;;;;3.20;2.30;;;;;;;;;;5094142;28;20687;-55
2022/05/16 03:46:21;;;;;;;5.73;1.87;;;;;;;;;;5093929;28;20203;-55
2022/05/16 03:48:47;;;;;;;6.07;1.83;;;;;;;;;;5093947;28;20233;-55
2022/05/16 03:51:14;;;;;;;3.17;1.97;;;;;;;;;;5094039;28;20285;-55
2022/05/16 03:53:46;;;;;;;4.90;1.87;;;;;;;;;;5093685;28;20194;-55
2022/05/16 03:56:12;;;;;;;4.13;1.73;;;;;;;;;;5093857;28;20270;-55
2022/05/16 03:58:40;;;;;;;5.40;2.33;;;;;;;;;;5093838;28;20240;-55
2022/05/16 04:01:06;;;;;;;4.77;2.10;;;;;;;;;;5093829;28;20592;-55
2022/05/16 04:03:32;;;;;;;4.40;2.10;;;;;;;;;;5093610;28;20278;-55
2022/05/16 04:05:58;;;;;;;2.40;1.70;;;;;;;;;;5093117;28;20191;-55
2022/05/16 04:08:25;;;;;;;4.27;2.10;;;;;;;;;;5093603;28;20542;-55
2022/05/16 04:10:51;;;;;;;3.33;2.33;;;;;;;;;;5093634;28;20199;-55
2022/05/16 04:13:17;;;;;;;5.13;2.03;;;;;;;;;;5093524;28;20201;-55
2022/05/16 04:15:45;;;;;;;3.37;2.00;;;;;;;;;;5093241;28;20203;-56
2022/05/16 04:18:11;;;;;;;2.87;2.10;;;;;;;;;;5093679;28;20203;-55
2022/05/16 04:20:37;;;;;;;5.17;2.93;;;;;;;;;;5093273;28;20194;-55
2022/05/16 04:23:03;;;;;;;3.93;2.20;;;;;;;;;;5093316;28;20203;-55
2022/05/16 04:25:30;;;;;;;5.67;2.37;;;;;;;;;;5093014;28;20219;-55
2022/05/16 04:27:56;;;;;;;3.27;2.40;;;;;;;;;;5093466;28;20574;-54
2022/05/16 04:30:22;;;;;;;2.33;2.13;;;;;;;;;;5092892;28;20219;-55
2022/05/16 04:32:49;;;;;;;2.30;2.07;;;;;;;;;;5093126;28;20248;-55
2022/05/16 04:35:16;;;;;;;4.93;2.23;;;;;;;;;;5093045;28;20582;-56
2022/05/16 04:37:42;;;;;;;3.23;2.00;;;;;;;;;;5092810;28;20245;-56
2022/05/16 04:40:09;;;;;;;2.70;1.93;;;;;;;;;;5092999;28;20191;-55
2022/05/16 04:42:41;;;;;;;7.33;2.40;;;;;;;;;;5092996;28;20198;-56
2022/05/16 04:45:08;;;;;;;4.37;2.07;;;;;;;;;;5092959;28;20244;-56
2022/05/16 04:47:34;;;;;;;4.13;2.20;;;;;;;;;;5092760;28;20226;-54
2022/05/16 04:50:01;;;;;;;2.33;2.00;;;;;;;;;;5092720;28;20269;-55
2022/05/16 04:52:28;;;;;;;6.23;2.47;;;;;;;;;;5092822;28;20203;-54
2022/05/16 04:54:54;;;;;;;2.80;1.93;;;;;;;;;;5092751;28;20207;-54
2022/05/16 04:57:20;;;;;;;3.77;1.90;;;;;;;;;;5092328;28;20205;-54
2022/05/16 04:59:47;;;;;;;6.10;2.87;;;;;;;;;;5092583;28;20226;-55
2022/05/16 05:02:13;;;;;;;5.43;2.50;;;;;;;;;;5092740;28;20210;-55
2022/05/16 05:04:39;;;;;;;4.73;2.37;;;;;;;;;;5092367;28;20689;-56
2022/05/16 05:07:06;;;;;;;3.80;2.33;;;;;;;;;;5092345;28;20238;-55
2022/05/16 05:14:32;;;;;;;3.80;2.20;;;;;;;;;;5092381;28;20218;-56
2022/05/16 05:15:03;;;;;;;3.93;2.37;;;;;;;;;;5092223;28;20228;-56
2022/05/16 05:17:29;;;;;;;4.27;2.27;;;;;;;;;;5092096;28;20245;-56
2022/05/16 05:19:55;;;;;;;2.70;2.30;;;;;;;;;;5092394;28;20191;-55
2022/05/16 05:22:23;;;;;;;3.17;2.33;;;;;;;;;;5091824;28;20226;-55
2022/05/16 05:24:49;;;;;;;4.77;2.17;;;;;;;;;;5090648;28;20223;-56
2022/05/16 05:27:15;;;;;;;3.27;1.90;;;;;;;;;;5092436;28;20683;-56
2022/05/16 05:29:41;;;;;;;4.03;2.50;;;;;;;;;;5092181;28;20232;-56
2022/05/16 05:32:07;;;;;;;3.27;2.20;;;;;;;;;;5092202;28;20202;-55
2022/05/16 05:34:36;;;;;;;3.43;2.00;;;;;;;;;;5090188;28;20683;-56
2022/05/16 05:37:02;;;;;;;4.40;2.30;;;;;;;;;;5092221;28;20195;-56
2022/05/16 05:39:31;;;;;;;5.43;2.27;;;;;;;;;;5092160;28;20218;-56
2022/05/16 05:41:57;;;;;;;4.93;2.43;;;;;;;;;;5092086;28;20227;-56
2022/05/16 05:44:23;;;;;;;4.27;2.50;;;;;;;;;;5091773;28;20229;-56
2022/05/16 05:46:49;;;;;;;3.57;2.13;;;;;;;;;;5091886;28;20194;-56
2022/05/16 05:49:15;;;;;;;5.20;2.70;;;;;;;;;;5091752;28;20309;-55
2022/05/16 05:51:42;;;;;;;2.87;2.20;;;;;;;;;;5091738;28;20211;-55
2022/05/16 05:54:08;;;;;;;5.53;2.30;;;;;;;;;;5092036;28;20198;-55
2022/05/16 05:56:37;;;;;;;3.53;2.43;;;;;;;;;;5091665;28;20195;-55
2022/05/16 05:59:03;;;;;;;2.53;2.23;;;;;;;;;;5091775;28;20202;-55
2022/05/16 06:01:29;;;;;;;4.97;2.10;;;;;;;;;;5091788;28;20194;-56
2022/05/16 06:03:55;;;;;;;4.23;2.10;;;;;;;;;;5091700;28;20619;-56
2022/05/16 06:06:21;;;;;;;3.17;2.17;;;;;;;;;;5091692;28;20195;-56
2022/05/16 06:08:47;;;;;;;3.13;2.37;;;;;;;;;;5091722;28;20309;-56
2022/05/16 06:11:13;;;;;;;3.80;2.53;;;;;;;;;;5091907;28;20683;-55
2022/05/16 06:13:40;;;;;;;4.97;2.37;;;;;;;;;;5091629;28;20252;-54
2022/05/16 06:16:08;;;;;;;4.63;2.20;;;;;;;;;;5091563;28;20242;-56
2022/05/16 06:18:34;;;;;;;3.10;2.10;;;;;;;;;;5091407;28;20657;-55
2022/05/16 06:21:00;;;;;;;3.97;2.20;;;;;;;;;;5091790;28;20199;-55
2022/05/16 06:23:29;;;;;;;7.30;2.80;;;;;;;;;;5091467;28;20203;-55
2022/05/16 06:25:56;;;;;;;5.20;2.17;;;;;;;;;;5091385;28;20747;-55
2022/05/16 06:28:25;;;;;;;4.30;2.40;;;;;;;;;;5092721;28;20763;-57
2022/05/16 06:30:53;;;;;;;3.63;2.30;;;;;;;;;;5095195;28;20191;-57
2022/05/16 06:33:20;;;;;;;5.20;2.60;;;;;;;;;;5095104;28;20198;-56
2022/05/16 06:35:46;;;;;;;4.70;2.53;;;;;;;;;;5095487;28;20197;-56
2022/05/16 06:38:13;;;;;;;3.57;2.30;;;;;;;;;;5095294;28;20742;-56
2022/05/16 06:40:41;;;;;;;6.43;2.40;;;;;;;;;;5095100;28;20195;-57
2022/05/16 06:43:07;;;;;;;3.57;2.10;;;;;;;;;;5095324;28;20195;-56
2022/05/16 06:45:33;;;;;;;4.13;2.20;;;;;;;;;;5091033;28;20198;-57
2022/05/16 06:48:01;;;;;;;2.47;1.90;;;;;;;;;;5092983;28;20340;-57
2022/05/16 06:50:27;;;;;;;3.13;2.10;;;;;;;;;;5095032;28;20219;-57
2022/05/16 06:52:54;;;;;;;2.40;2.00;;;;;;;;;;5094789;28;20194;-56
2022/05/16 06:55:20;;;;;;;5.13;2.30;;;;;;;;;;5093282;28;20645;-57
2022/05/16 06:57:46;;;;;;;5.80;2.20;;;;;;;;;;5094916;28;20697;-57
2022/05/16 07:00:12;;;;;;;5.37;2.10;;;;;;;;;;5095097;28;20651;-57
2022/05/16 07:02:44;;;;;;;3.57;2.20;;;;;;;;;;5094717;28;20230;-56
2022/05/16 07:05:12;;;;;;;2.40;1.90;;;;;;;;;;5094252;28;20202;-57
2022/05/16 07:07:38;;;;;;;2.97;2.23;;;;;;;;;;5094369;28;20292;-57
2022/05/16 07:10:04;;;;;;;4.30;2.00;;;;;;;;;;5094492;28;20313;-57
2022/05/16 07:12:30;;;;;;;3.87;2.20;;;;;;;;;;5094333;28;20212;-57
2022/05/16 07:14:56;;;;;;;2.87;2.07;;;;;;;;;;5094618;28;20197;-57
2022/05/16 07:17:22;;;;;;;5.40;1.90;;;;;;;;;;5093951;28;20242;-57
2022/05/16 07:19:49;;;;;;;4.37;2.03;;;;;;;;;;5094122;28;20194;-57
2022/05/16 07:22:19;;;;;;;3.03;2.07;;;;;;;;;;5094740;28;20259;-56
2022/05/16 07:24:46;;;;;;;6.90;2.30;;;;;;;;;;5094315;28;20238;-57
2022/05/16 07:29:57;;;;;;;5.30;2.23;;;;;;;;;;5094314;28;20220;-56
2022/05/16 07:32:22;;;;;;;4.30;2.23;;;;;;;;;;5094269;28;20285;-57
2022/05/16 07:34:49;;;;;;;6.27;2.20;;;;;;;;;;5094025;28;20649;-56
2022/05/16 07:37:16;;;;;;;3.20;2.20;;;;;;;;;;5094377;28;20190;-56
2022/05/16 07:39:42;;;;;;;4.97;2.33;;;;;;;;;;5092895;28;20214;-56
2022/05/16 07:42:09;;;;;;;4.60;2.10;;;;;;;;;;5094097;28;20692;-56
2022/05/16 07:44:36;;;;;;;5.50;1.97;;;;;;;;;;5093890;28;20572;-56
2022/05/16 07:47:02;;;;;;;3.03;2.00;;;;;;;;;;5094030;28;20206;-57
2022/05/16 07:49:28;;;;;;;6.10;2.60;;;;;;;;;;5093876;28;20221;-56
2022/05/16 07:51:54;;;;;;;4.63;1.77;;;;;;;;;;5094061;28;20195;-56
2022/05/16 07:54:22;;;;;;;3.67;1.90;;;;;;;;;;5093923;28;20202;-59
2022/05/16 07:56:48;;;;;;;7.93;2.20;;;;;;;;;;5093990;28;20244;-58
2022/05/16 07:59:16;;;;;;;6.63;2.30;;;;;;;;;;5094039;28;20188;-58
2022/05/16 08:01:42;;;;;;;5.53;1.90;;;;;;;;;;5093920;28;20203;-59
2022/05/16 08:04:08;;;;;;;5.83;2.07;;;;;;;;;;5093734;28;20206;-57
2022/05/16 08:06:34;;;;;;;6.13;2.40;;;;;;;;;;5093632;28;20195;-59
2022/05/16 08:11:46;;;;;;;5.00;2.13;;;;;;;;;;5093715;28;20194;-55
2022/05/16 08:14:13;;;;;;;3.87;1.93;;;;;;;;;;5093524;28;20206;-56
2022/05/16 08:16:39;;;;;;;4.07;1.80;;;;;;;;;;5093341;28;20234;-56
2022/05/16 08:19:06;;;;;;;5.50;1.70;;;;;;;;;;5093331;28;20214;-56
2022/05/16 08:21:32;;;;;;;5.27;2.27;;;;;;;;;;5093560;28;20238;-57
2022/05/16 08:23:58;;;;;;;3.63;1.90;;;;;;;;;;5093491;28;20657;-57
2022/05/16 08:26:24;;;;;;;4.77;2.20;;;;;;;;;;5093460;28;20198;-56
2022/05/16 08:28:51;;;;;;;5.97;2.10;;;;;;;;;;5093260;28;20245;-56
2022/05/16 08:31:17;;;;;;;3.90;2.20;;;;;;;;;;5093199;28;20210;-56
2022/05/16 08:33:43;;;;;;;4.07;1.90;;;;;;;;;;5093344;28;20199;-55
2022/05/16 08:41:43;;;;;;;3.00;2.00;;;;;;;;;;5093203;28;20295;-56
2022/05/16 08:44:14;;;;;;;4.67;1.93;;;;;;;;;;5093061;28;20204;-56
2022/05/16 08:46:46;;;;;;;4.87;1.90;;;;;;;;;;5092972;28;20279;-57
2022/05/16 08:49:16;;;;;;;4.50;2.00;;;;;;;;;;5092976;28;20365;-57
2022/05/16 08:51:45;;;;;;;7.80;2.20;;;;;;;;;;5092536;28;20200;-57
2022/05/16 08:54:13;;;;;;;7.20;2.20;;;;;;;;;;5092721;28;20204;-57
2022/05/16 08:56:42;;;;;;;4.07;1.93;;;;;;;;;;5092834;28;20202;-58
2022/05/16 08:59:09;;;;;;;4.80;1.83;;;;;;;;;;5092800;28;20726;-58
2022/05/16 09:01:39;;;;;;;5.10;2.30;;;;;;;;;;5092475;28;20609;-58
2022/05/16 09:04:08;;;;;;;3.57;1.80;;;;;;;;;;5092675;28;20230;-58
2022/05/16 09:06:36;;;;;;;6.03;2.10;;;;;;;;;;5089112;28;20236;-60
2022/05/16 09:09:05;;;;;;;4.97;1.90;;;;;;;;;;5091273;28;20220;-58
2022/05/16 09:11:35;;;;;;;6.10;2.53;;;;;;;;;;5090431;28;20242;-59
2022/05/16 09:14:04;;;;;;;4.90;2.07;;;;;;;;;;5092742;28;20206;-58
2022/05/16 09:16:37;;;;;;;7.77;2.10;;;;;;;;;;5092256;28;20272;-59
2022/05/16 09:19:10;;;;;;;3.50;2.20;;;;;;;;;;5090636;28;20190;-57
2022/05/16 09:21:46;;;;;;;2.83;2.00;;;;;;;;;;5091241;28;20727;-56
2022/05/16 09:24:13;;;;;;;5.53;2.20;;;;;;;;;;5092617;28;20259;-58
2022/05/16 09:26:44;;;;;;;3.77;1.90;;;;;;;;;;5092456;28;20232;-55
2022/05/16 09:29:15;;;;;;;4.07;1.93;;;;;;;;;;5092720;28;20567;-55
2022/05/16 09:31:44;;;;;;;4.73;1.90;;;;;;;;;;5092028;28;20282;-57
2022/05/16 09:34:12;;;;;;;4.07;2.20;;;;;;;;;;5092291;28;20220;-55
2022/05/16 09:36:40;;;;;;;7.33;2.30;;;;;;;;;;5092164;28;20256;-55
2022/05/16 09:39:07;;;;;;;5.93;2.40;;;;;;;;;;5092353;28;20276;-56
2022/05/16 09:41:40;;;;;;;9.80;2.40;;;;;;;;;;5092026;28;20199;-56
2022/05/16 09:44:09;;;;;;;4.77;1.93;;;;;;;;;;5092249;28;20203;-56
2022/05/16 09:46:37;;;;;;;4.60;2.27;;;;;;;;;;5091969;28;20649;-56
2022/05/16 09:49:06;;;;;;;6.70;2.33;;;;;;;;;;5091920;28;20707;-57
2022/05/16 09:51:39;;;;;;;8.00;2.33;;;;;;;;;;5092050;28;20201;-55
2022/05/16 09:54:10;;;;;;;4.27;2.17;;;;;;;;;;5092038;28;20616;-55
2022/05/16 09:56:36;;;;;;;5.77;2.37;;;;;;;;;;5091872;28;20203;-57
2022/05/16 09:59:14;;;;;;;4.87;2.40;;;;;;;;;;5090046;28;20194;-55
2022/05/16 10:01:44;;;;;;;3.37;2.20;;;;;;;;;;5089859;28;20192;-54
2022/05/16 10:04:12;;;;;;;5.33;2.10;;;;;;;;;;5093705;28;20207;-54
2022/05/16 10:06:43;;;;;;;4.27;2.20;;;;;;;;;;5095499;28;20247;-54
2022/05/16 10:09:10;;;;;;;10.03;2.20;;;;;;;;;;5095749;28;20234;-57
2022/05/16 10:11:37;;;;;;;4.20;2.23;;;;;;;;;;5095541;28;20200;-55
2022/05/16 10:14:04;;;;;;;3.97;2.00;;;;;;;;;;5095638;28;20229;-56
2022/05/16 10:16:31;;;;;;;5.40;2.27;;;;;;;;;;5095474;28;20248;-56
2022/05/16 10:18:59;;;;;;;6.80;2.37;;;;;;;;;;5095502;28;20197;-56
2022/05/16 10:21:26;;;;;;;6.93;2.57;;;;;;;;;;5095455;28;20212;-57
2022/05/16 10:23:54;;;;;;;7.57;2.30;;;;;;;;;;5095333;28;20288;-56
2022/05/16 10:26:23;;;;;;;4.37;2.23;;;;;;;;;;5095417;28;20199;-57
2022/05/16 10:28:55;;;;;;;5.80;2.20;;;;;;;;;;5095130;28;20210;-56
2022/05/16 10:34:09;;;;;;;7.57;2.37;;;;;;;;;;5095364;28;20275;-56
2022/05/16 10:36:36;;;;;;;3.93;2.37;;;;;;;;;;5095155;28;20336;-56
2022/05/16 10:39:05;;;;;;;4.80;2.47;;;;;;;;;;5095095;28;20674;-57
2022/05/16 10:41:33;;;;;;;4.47;2.43;;;;;;;;;;5095522;28;20199;-57
2022/05/16 10:44:08;;;;;;;4.50;2.50;;;;;;;;;;5095139;28;20203;-56
2022/05/16 10:46:36;;;;;;;5.73;2.60;;;;;;;;;;5095153;28;20205;-56
2022/05/16 10:49:04;;;;;;;3.60;2.20;;;;;;;;;;5095148;28;20233;-57
2022/05/16 10:51:34;;;;;;;4.17;2.33;;;;;;;;;;5095153;28;20650;-57
2022/05/16 10:54:06;;;;;;;8.20;2.40;;;;;;;;;;5095141;28;20208;-57
2022/05/16 10:56:50;;;;;;;4.57;2.33;;;;;;;;;;5095032;28;20194;-56
2022/05/16 10:59:24;;;;;;;5.43;2.33;;;;;;;;;;5094728;28;20200;-56
2022/05/16 11:01:53;;;;;;;7.10;2.20;;;;;;;;;;5094414;28;20198;-56
2022/05/16 11:04:30;;;;;;;12.23;2.60;;;;;;;;;;5094659;28;20204;-56
2022/05/16 11:07:02;;;;;;;6.87;3.20;;;;;;;;;;5094737;28;20201;-56
2022/05/16 11:09:34;;;;;;;8.83;2.50;;;;;;;;;;5094672;28;20216;-56
2022/05/16 11:12:04;;;;;;;5.33;2.53;;;;;;;;;;5094548;28;20209;-57
2022/05/16 11:14:32;;;;;;;6.33;2.53;;;;;;;;;;5094446;28;20199;-56
2022/05/16 11:17:02;;;;;;;9.83;2.63;;;;;;;;;;5094506;28;20306;-56
2022/05/16 11:19:30;;;;;;;6.20;2.80;;;;;;;;;;5094826;28;20201;-56
2022/05/16 11:21:59;;;;;;;6.37;2.67;;;;;;;;;;5094327;28;20279;-56
2022/05/16 11:24:30;;;;;;;7.85;2.53;;;;;;;;;;5093007;28;20394;-56
2022/05/16 11:27:03;;;;;;;9.33;2.57;;;;;;;;;;5094553;28;20217;-56
2022/05/16 11:29:32;;;;;;;5.10;2.73;;;;;;;;;;5094157;28;20225;-56
2022/05/16 11:32:06;;;;;;;7.07;2.30;;;;;;;;;;5094343;28;20205;-56
2022/05/16 11:34:40;;;;;;;4.87;2.57;;;;;;;;;;5093759;28;20194;-55
2022/05/16 11:37:11;;;;;;;10.87;2.60;;;;;;;;;;5094180;28;20200;-56
2022/05/16 11:39:40;;;;;;;6.93;2.83;;;;;;;;;;5093933;28;20196;-56
2022/05/16 11:42:12;;;;;;;5.60;2.47;;;;;;;;;;5093887;28;20205;-56
2022/05/16 11:44:44;;;;;;;5.53;2.40;;;;;;;;;;5093844;28;20267;-56
2022/05/16 11:47:15;;;;;;;6.17;2.50;;;;;;;;;;5093937;28;20203;-56
2022/05/16 11:49:43;;;;;;;9.57;2.73;;;;;;;;;;5093690;28;20227;-56
2022/05/16 11:52:14;;;;;;;5.17;2.43;;;;;;;;;;5093658;28;20603;-56
2022/05/16 11:54:41;;;;;;;5.73;2.80;;;;;;;;;;5093650;28;20684;-56
2022/05/16 12:02:39;;;;;;;4.90;2.70;;;;;;;;;;5093301;28;20192;-56
2022/05/16 12:05:09;;;;;;;3.87;2.20;;;;;;;;;;5093986;28;20203;-56
2022/05/16 12:07:39;;;;;;;7.77;2.73;;;;;;;;;;5093575;28;20193;-56
2022/05/16 12:10:19;;;;;;;4.27;2.53;;;;;;;;;;5093685;28;20244;-56
2022/05/16 12:12:47;;;;;;;5.67;2.50;;;;;;;;;;5088506;28;20204;-56
2022/05/16 12:15:27;;;;;;;6.60;2.90;;;;;;;;;;5093613;28;20574;-56
2022/05/16 12:17:54;;;;;;;4.13;2.40;;;;;;;;;;5093208;28;20593;-56
2022/05/16 12:20:34;;;;;;;3.63;2.50;;;;;;;;;;5093505;28;20719;-57
2022/05/16 12:23:00;;;;;;;5.40;2.43;;;;;;;;;;5093445;28;20645;-56
2022/05/16 12:25:32;;;;;;;5.80;2.57;;;;;;;;;;5090958;28;20308;-57
2022/05/16 12:28:21;;;;;;;4.10;2.40;;;;;;;;;;5093341;28;20256;-56
2022/05/16 12:30:50;;;;;;;5.17;2.30;;;;;;;;;;5093238;28;20233;-56
2022/05/16 12:33:32;;;;;;;2.60;2.10;;;;;;;;;;5093330;28;20606;-56
2022/05/16 12:35:58;;;;;;;6.13;2.57;;;;;;;;;;5093390;28;20194;-56
2022/05/16 12:38:25;;;;;;;4.93;2.50;;;;;;;;;;5093289;28;20209;-56
2022/05/16 12:41:03;;;;;;;5.07;2.30;;;;;;;;;;5092963;28;20187;-56
2022/05/16 12:43:39;;;;;;;6.50;2.50;;;;;;;;;;5093185;28;20198;-56
2022/05/16 12:46:21;;;;;;;7.67;2.40;;;;;;;;;;5093182;28;20543;-55
2022/05/16 12:49:12;;;;;;;11.85;2.95;;;;;;;;;;5091774;28;20453;-56
2022/05/16 12:51:45;;;;;;;6.23;2.90;;;;;;;;;;5092998;28;20204;-56
2022/05/16 12:54:39;;;;;;;6.67;2.90;;;;;;;;;;5093017;28;20286;-55
2022/05/16 12:57:18;;;;;;;4.63;2.43;;;;;;;;;;5092943;28;20202;-55
2022/05/16 12:59:51;;;;;;;6.57;3.10;;;;;;;;;;5092776;28;20718;-55
2022/05/16 13:02:21;;;;;;;8.50;2.70;;;;;;;;;;5092776;28;20209;-55
2022/05/16 13:04:52;;;;;;;6.40;2.67;;;;;;;;;;5092629;28;20203;-56
2022/05/16 13:07:20;;;;;;;5.93;2.67;;;;;;;;;;5091496;28;20421;-56
2022/05/16 13:09:51;;;;;;;6.88;3.00;;;;;;;;;;5091322;28;20422;-55
2022/05/16 13:12:26;;;;;;;9.53;2.90;;;;;;;;;;5092690;28;20268;-55
2022/05/16 13:14:58;;;;;;;6.40;2.40;;;;;;;;;;5092477;28;20205;-56
2022/05/16 13:17:29;;;;;;;6.07;2.60;;;;;;;;;;5092430;28;20672;-55
2022/05/16 13:19:55;;;;;;;4.47;2.53;;;;;;;;;;5092633;28;20202;-56
2022/05/16 13:22:23;;;;;;;6.90;2.70;;;;;;;;;;5092666;28;20199;-55
2022/05/16 13:24:52;;;;;;;5.63;2.60;;;;;;;;;;5092315;28;20210;-55
2022/05/16 13:30:07;;;;;;;7.73;3.10;;;;;;;;;;5092535;28;20228;-55
2022/05/16 13:32:33;;;;;;;4.73;2.40;;;;;;;;;;5092286;28;20201;-55
2022/05/16 13:35:01;;;;;;;4.10;2.50;;;;;;;;;;5092401;28;20201;-55
2022/05/16 13:37:29;;;;;;;5.70;3.83;;;;;;;;;;5091830;28;20220;-56
2022/05/16 13:39:56;;;;;;;5.67;2.80;;;;;;;;;;5092031;28;20190;-56
2022/05/16 13:42:22;;;;;;;5.93;2.67;;;;;;;;;;5090491;28;20198;-56
2022/05/16 13:44:49;;;;;;;4.57;2.60;;;;;;;;;;5092107;28;20209;-57
2022/05/16 13:47:21;;;;;;;5.90;2.80;;;;;;;;;;5092312;28;20204;-57
2022/05/16 13:49:48;;;;;;;7.77;2.63;;;;;;;;;;5092207;28;20223;-57
2022/05/16 13:52:16;;;;;;;5.90;3.00;;;;;;;;;;5092487;28;20203;-55
2022/05/16 13:54:42;;;;;;;4.50;2.53;;;;;;;;;;5091986;28;20563;-56
2022/05/16 13:57:13;;;;;;;6.90;2.70;;;;;;;;;;5092017;28;20216;-55
2022/05/16 13:59:39;;;;;;;7.03;2.77;;;;;;;;;;5091818;28;20199;-56
2022/05/16 14:02:08;;;;;;;5.47;2.70;;;;;;;;;;5091891;28;20225;-56
2022/05/16 14:04:37;;;;;;;6.30;2.97;;;;;;;;;;5092204;28;20209;-56
2022/05/16 14:07:06;;;;;;;5.13;2.40;;;;;;;;;;5092036;28;20206;-55
2022/05/16 14:09:35;;;;;;;4.67;2.63;;;;;;;;;;5091994;28;20693;-56
2022/05/16 14:12:02;;;;;;;8.27;3.10;;;;;;;;;;5092012;28;20368;-55
2022/05/16 14:14:29;;;;;;;3.70;2.40;;;;;;;;;;5091757;28;20217;-55
2022/05/16 14:16:56;;;;;;;3.27;2.23;;;;;;;;;;5091437;28;20312;-56
2022/05/16 14:19:31;;;;;;;4.13;2.50;;;;;;;;;;5091854;28;20285;-56
2022/05/16 14:22:02;;;;;;;5.07;2.37;;;;;;;;;;5092067;28;20224;-55
2022/05/16 14:24:32;;;;;;;5.50;2.60;;;;;;;;;;5088922;28;20229;-55
2022/05/16 14:26:58;;;;;;;3.93;2.63;;;;;;;;;;5090838;28;20237;-56
2022/05/16 14:29:28;;;;;;;4.00;2.63;;;;;;;;;;5091321;28;20229;-56
2022/05/16 14:32:00;;;;;;;5.77;2.33;;;;;;;;;;5091341;28;20202;-56
2022/05/16 14:34:27;;;;;;;4.33;2.43;;;;;;;;;;5091626;28;20203;-56
2022/05/16 14:36:54;;;;;;;6.60;2.53;;;;;;;;;;5091420;28;20203;-56
2022/05/16 14:39:23;;;;;;;5.80;3.13;;;;;;;;;;5091381;28;20205;-56
2022/05/16 14:41:54;;;;;;;5.83;2.50;;;;;;;;;;5091262;28;20626;-56
2022/05/16 14:44:21;;;;;;;4.03;2.60;;;;;;;;;;5091262;28;20285;-56
2022/05/16 14:46:56;;;;;;;6.50;2.60;;;;;;;;;;5091078;28;20253;-55
2022/05/16 14:49:22;;;;;;;11.23;2.93;;;;;;;;;;5092313;28;20226;-56
2022/05/16 14:51:49;;;;;;;8.00;2.37;;;;;;;;;;5094874;28;20199;-56
2022/05/16 14:54:16;;;;;;;5.60;2.33;;;;;;;;;;5095349;28;20206;-56
2022/05/16 14:56:43;;;;;;;7.13;2.50;;;;;;;;;;5094881;28;20213;-56
2022/05/16 14:59:09;;;;;;;5.00;2.40;;;;;;;;;;5094823;28;20248;-56
2022/05/16 15:04:20;;;;;;;4.13;2.27;;;;;;;;;;5094800;28;20209;-56
2022/05/16 15:06:46;;;;;;;7.50;2.50;;;;;;;;;;5094624;28;20210;-56
2022/05/16 15:09:13;;;;;;;4.37;2.70;;;;;;;;;;5094632;28;20206;-56
2022/05/16 15:11:42;;;;;;;3.13;2.60;;;;;;;;;;5094798;28;20202;-56
2022/05/16 15:14:09;;;;;;;5.67;2.70;;;;;;;;;;5094542;28;20372;-55
2022/05/16 15:16:35;;;;;;;7.27;2.50;;;;;;;;;;5094270;28;20242;-55
2022/05/16 15:19:01;;;;;;;4.80;2.40;;;;;;;;;;5094392;28;20284;-59
2022/05/16 15:21:28;;;;;;;5.13;2.47;;;;;;;;;;5094467;28;20195;-57
2022/05/16 15:23:54;;;;;;;4.93;2.60;;;;;;;;;;5094313;28;20197;-56